Time;durP1;ratioP1;P1;durP2;ratioP2;P2;SDS_P1;SDS_P2;PMS_P1;PMS_P2;Temp;Humidity;BMP_temperature;BMP_pressure;BME280_temperature;BME280_humidity;BME280_pressure;Samples;Min_cycle;Max_cycle;Signal;HPM_P1;HPM_P2
2023/08/25 00:00:58;;;;;;;3.17;2.85;;;20.30;99.90;;;;;;5038205;28;20034;-68
2023/08/25 00:03:24;;;;;;;1.20;1.17;;;20.20;99.90;;;;;;5033324;28;20026;-68
2023/08/25 00:05:53;;;;;;;1.95;1.85;;;20.30;99.90;;;;;;5051244;28;20042;-68
2023/08/25 00:08:19;;;;;;;2.28;1.42;;;20.30;99.90;;;;;;5033927;28;20100;-69
2023/08/25 00:10:46;;;;;;;0.85;0.85;;;20.20;99.90;;;;;;5035748;28;20049;-68
2023/08/25 00:13:12;;;;;;;1.52;1.42;;;20.20;99.90;;;;;;5035835;28;20032;-68
2023/08/25 00:15:39;;;;;;;1.08;1.00;;;20.20;99.90;;;;;;5032098;28;20053;-70
2023/08/25 00:18:05;;;;;;;1.73;1.63;;;20.20;99.90;;;;;;5039434;28;20028;-68
2023/08/25 00:20:31;;;;;;;2.42;2.30;;;20.20;99.90;;;;;;5032664;28;20029;-68
2023/08/25 00:22:57;;;;;;;0.68;0.68;;;20.20;99.90;;;;;;5023805;28;20177;-68
2023/08/25 00:25:23;;;;;;;2.63;1.27;;;20.10;99.90;;;;;;5030217;28;20029;-69
2023/08/25 00:27:48;;;;;;;2.53;2.33;;;20.20;99.90;;;;;;5031230;28;20113;-68
2023/08/25 00:30:14;;;;;;;1.07;1.07;;;20.10;99.90;;;;;;5035035;28;20401;-68
2023/08/25 00:32:40;;;;;;;1.43;1.43;;;20.20;99.90;;;;;;5034978;28;20036;-68
2023/08/25 00:35:07;;;;;;;2.95;1.88;;;20.10;99.90;;;;;;5033969;28;20028;-68
2023/08/25 00:37:33;;;;;;;1.52;1.42;;;20.10;99.90;;;;;;5033773;28;20029;-68
2023/08/25 00:39:59;;;;;;;1.42;1.42;;;20.10;99.90;;;;;;5026844;28;20539;-68
2023/08/25 00:42:25;;;;;;;1.73;1.63;;;20.10;99.90;;;;;;5032702;28;20128;-68
2023/08/25 00:44:51;;;;;;;1.48;1.38;;;20.10;99.90;;;;;;5031886;28;20348;-68
2023/08/25 00:47:18;;;;;;;1.47;1.23;;;20.00;99.90;;;;;;5049165;28;20040;-68
2023/08/25 00:49:45;;;;;;;1.63;1.52;;;20.00;99.90;;;;;;5034010;28;20057;-68
2023/08/25 00:52:12;;;;;;;2.00;1.67;;;20.00;99.90;;;;;;5031132;28;20056;-68
2023/08/25 00:54:39;;;;;;;0.70;0.70;;;19.90;99.90;;;;;;5030737;28;20018;-68
2023/08/25 00:57:05;;;;;;;1.38;1.27;;;19.90;99.90;;;;;;5029672;28;20417;-77
2023/08/25 00:59:32;;;;;;;1.10;0.95;;;19.90;99.90;;;;;;5021937;28;20044;-68
2023/08/25 01:01:58;;;;;;;2.20;1.77;;;19.80;99.90;;;;;;5029779;28;20042;-69
2023/08/25 01:04:24;;;;;;;2.03;1.92;;;19.80;99.90;;;;;;5032026;28;20037;-69
2023/08/25 01:06:50;;;;;;;1.63;1.53;;;19.80;99.90;;;;;;5029772;28;20034;-68
2023/08/25 01:09:18;;;;;;;0.90;0.90;;;19.70;99.90;;;;;;5028451;28;20412;-69
2023/08/25 01:11:44;;;;;;;15.02;3.67;;;19.70;99.90;;;;;;5030194;28;20275;-68
2023/08/25 01:14:21;;;;;;;1.67;1.58;;;19.70;99.90;;;;;;5028825;28;20032;-68
2023/08/25 01:17:09;;;;;;;2.42;2.25;;;19.70;99.90;;;;;;5025905;28;20360;-68
2023/08/25 01:19:55;;;;;;;1.75;1.65;;;19.60;99.90;;;;;;5028617;28;20038;-68
2023/08/25 01:22:33;;;;;;;0.98;0.98;;;19.60;99.90;;;;;;5032561;28;20079;-68
2023/08/25 01:25:18;;;;;;;2.28;2.08;;;19.60;99.90;;;;;;5033103;28;20107;-68
2023/08/25 01:27:44;;;;;;;1.17;1.08;;;19.60;99.90;;;;;;5023601;28;20088;-68
2023/08/25 01:30:11;;;;;;;1.92;1.80;;;19.60;99.90;;;;;;5027346;28;20026;-68
2023/08/25 01:32:37;;;;;;;0.80;0.57;;;19.50;99.90;;;;;;5029802;28;20057;-68
2023/08/25 01:35:04;;;;;;;2.75;2.15;;;19.50;99.90;;;;;;5031621;28;20038;-68
2023/08/25 01:37:38;;;;;;;1.35;1.35;;;19.50;99.90;;;;;;5026174;28;20500;-68
2023/08/25 01:40:11;;;;;;;0.90;0.90;;;19.60;99.90;;;;;;5031735;28;20044;-68
2023/08/25 01:42:39;;;;;;;1.45;1.35;;;19.60;99.90;;;;;;5031433;28;20251;-68
2023/08/25 01:45:06;;;;;;;1.88;1.77;;;19.60;99.90;;;;;;5033682;28;20415;-68
2023/08/25 01:47:34;;;;;;;1.77;1.52;;;19.60;99.90;;;;;;5033693;28;20033;-68
2023/08/25 01:50:01;;;;;;;2.35;2.13;;;19.60;99.90;;;;;;5034098;28;20029;-68
2023/08/25 01:52:26;;;;;;;;;;;19.60;99.90;;;;;;5031595;28;20033;-68
2023/08/25 01:54:52;;;;;;;2.10;1.90;;;19.70;99.90;;;;;;5034127;28;19916;-68
2023/08/25 01:57:18;;;;;;;3.80;2.63;;;19.70;99.90;;;;;;5031162;28;20033;-68
2023/08/25 01:59:44;;;;;;;2.03;1.93;;;19.70;99.90;;;;;;5023793;28;20297;-68
2023/08/25 02:02:09;;;;;;;3.27;2.30;;;19.70;99.90;;;;;;5033571;28;20033;-68
2023/08/25 02:04:35;;;;;;;6.37;2.67;;;19.80;99.90;;;;;;5033835;28;20030;-68
2023/08/25 02:07:02;;;;;;;2.33;1.60;;;19.80;99.90;;;;;;5033080;28;20037;-68
2023/08/25 02:09:28;;;;;;;2.20;2.10;;;19.70;99.90;;;;;;5032109;28;20021;-68
2023/08/25 02:11:53;;;;;;;2.10;1.80;;;19.70;99.90;;;;;;5037468;28;20025;-69
2023/08/25 02:14:19;;;;;;;1.80;1.73;;;19.70;99.90;;;;;;5024774;28;20115;-68
2023/08/25 02:16:45;;;;;;;2.07;1.97;;;19.70;99.90;;;;;;5043526;28;20036;-68
2023/08/25 02:19:10;;;;;;;3.93;2.57;;;19.70;99.90;;;;;;5034121;28;20033;-68
2023/08/25 02:21:36;;;;;;;1.53;1.43;;;19.70;99.90;;;;;;5035391;28;20525;-68
2023/08/25 02:24:02;;;;;;;4.23;3.50;;;19.70;99.90;;;;;;5035141;28;20044;-68
2023/08/25 02:26:28;;;;;;;6.68;2.15;;;19.70;99.90;;;;;;5022493;28;20287;-68
2023/08/25 02:28:55;;;;;;;4.30;3.87;;;19.70;99.90;;;;;;5035424;28;20030;-68
2023/08/25 02:31:21;;;;;;;2.53;2.33;;;19.70;99.90;;;;;;5032587;28;20060;-68
2023/08/25 02:33:47;;;;;;;3.33;3.13;;;19.70;99.90;;;;;;5037097;28;20053;-68
2023/08/25 02:36:13;;;;;;;3.00;2.30;;;19.70;99.90;;;;;;5034452;28;20021;-68
2023/08/25 02:38:38;;;;;;;3.07;2.80;;;19.70;99.90;;;;;;5035617;28;21185;-68
2023/08/25 02:41:04;;;;;;;3.67;2.47;;;19.70;99.90;;;;;;5036979;28;20072;-68
2023/08/25 02:43:30;;;;;;;3.87;3.53;;;19.70;99.90;;;;;;5033154;28;20033;-69
2023/08/25 02:45:58;;;;;;;6.00;2.37;;;19.70;99.90;;;;;;5033742;28;20060;-68
2023/08/25 02:48:24;;;;;;;2.50;2.33;;;19.70;99.90;;;;;;5032521;28;20124;-68
2023/08/25 02:50:50;;;;;;;2.97;2.77;;;19.70;99.90;;;;;;5033051;28;20092;-68
2023/08/25 02:53:15;;;;;;;2.13;1.50;;;19.60;99.90;;;;;;5032603;28;20274;-68
2023/08/25 02:55:41;;;;;;;1.88;1.77;;;19.60;99.90;;;;;;5029670;28;20033;-69
2023/08/25 02:58:07;;;;;;;3.23;2.67;;;19.60;99.90;;;;;;5036736;28;20025;-68
2023/08/25 03:00:33;;;;;;;1.93;1.83;;;19.60;99.90;;;;;;5035956;28;20091;-69
2023/08/25 03:02:58;;;;;;;3.67;2.97;;;19.60;99.90;;;;;;5035253;28;20034;-69
2023/08/25 03:05:25;;;;;;;1.57;1.50;;;19.50;99.90;;;;;;5033671;28;20021;-69
2023/08/25 03:07:52;;;;;;;4.75;2.55;;;19.50;99.90;;;;;;5035956;28;20025;-68
2023/08/25 03:10:17;;;;;;;;;;;19.50;99.90;;;;;;5029572;28;20065;-68
2023/08/25 03:12:43;;;;;;;1.98;1.88;;;19.50;99.90;;;;;;5029528;28;19952;-68
2023/08/25 03:15:09;;;;;;;1.93;1.83;;;19.40;99.90;;;;;;5032384;28;20044;-68
2023/08/25 03:17:35;;;;;;;1.85;1.75;;;19.40;99.90;;;;;;5030337;28;20037;-68
2023/08/25 03:20:02;;;;;;;2.92;2.72;;;19.40;99.90;;;;;;5029842;28;20068;-68
2023/08/25 03:22:28;;;;;;;4.20;2.72;;;19.50;99.90;;;;;;5029322;28;20080;-68
2023/08/25 03:24:54;;;;;;;2.45;2.25;;;19.50;99.90;;;;;;5032873;28;20454;-68
2023/08/25 03:27:20;;;;;;;3.17;2.97;;;19.60;99.90;;;;;;5034009;28;20065;-68
2023/08/25 03:29:46;;;;;;;2.10;2.00;;;19.60;99.90;;;;;;5030657;28;20297;-73
2023/08/25 03:32:11;;;;;;;2.05;1.95;;;19.60;99.90;;;;;;5035175;28;20040;-68
2023/08/25 03:34:37;;;;;;;2.20;2.07;;;19.60;99.90;;;;;;5034019;28;20135;-68
2023/08/25 03:37:03;;;;;;;2.65;2.55;;;19.50;99.90;;;;;;5035912;28;20021;-68
2023/08/25 03:39:29;;;;;;;4.82;2.35;;;19.50;99.90;;;;;;5033784;28;20168;-69
2023/08/25 03:41:55;;;;;;;3.55;2.95;;;19.50;99.90;;;;;;5051368;28;20033;-68
2023/08/25 03:44:21;;;;;;;1.97;1.77;;;19.50;99.90;;;;;;5036134;28;20114;-68
2023/08/25 03:46:46;;;;;;;3.73;2.83;;;19.40;99.90;;;;;;5035870;28;20040;-68
2023/08/25 03:49:12;;;;;;;2.90;2.70;;;19.40;99.90;;;;;;5036198;28;20048;-68
2023/08/25 03:51:38;;;;;;;2.03;1.93;;;19.40;99.90;;;;;;5035540;28;20339;-68
2023/08/25 03:54:06;;;;;;;3.33;2.97;;;19.30;99.90;;;;;;5033706;28;20044;-68
2023/08/25 03:56:32;;;;;;;14.30;2.88;;;19.30;99.90;;;;;;5035559;28;20035;-69
2023/08/25 03:58:57;;;;;;;2.65;2.35;;;19.20;99.90;;;;;;5036034;28;20033;-68
2023/08/25 04:01:23;;;;;;;3.63;3.33;;;19.20;99.90;;;;;;5031516;28;20080;-68
2023/08/25 04:03:49;;;;;;;1.93;1.83;;;19.20;99.90;;;;;;5027926;28;20041;-68
2023/08/25 04:06:14;;;;;;;2.13;2.03;;;19.20;99.90;;;;;;5031995;28;20048;-68
2023/08/25 04:08:40;;;;;;;10.97;2.10;;;19.20;99.90;;;;;;5035844;28;20037;-68
2023/08/25 04:11:06;;;;;;;2.55;1.33;;;19.10;99.90;;;;;;5031126;28;20038;-68
2023/08/25 04:13:32;;;;;;;2.30;2.20;;;19.00;99.90;;;;;;5026835;28;20034;-68
2023/08/25 04:15:58;;;;;;;2.23;2.03;;;19.00;99.90;;;;;;5030145;28;20044;-68
2023/08/25 04:18:25;;;;;;;2.47;2.33;;;19.00;99.90;;;;;;5029725;28;20112;-68
2023/08/25 04:20:51;;;;;;;3.08;1.80;;;19.10;99.90;;;;;;5030502;28;20037;-68
2023/08/25 04:23:17;;;;;;;1.02;1.02;;;19.10;99.90;;;;;;5033961;28;20084;-68
2023/08/25 04:25:44;;;;;;;5.90;2.67;;;19.00;99.90;;;;;;5034609;28;20325;-68
2023/08/25 04:28:10;;;;;;;4.32;3.05;;;19.10;99.90;;;;;;5032449;28;20028;-68
2023/08/25 04:30:36;;;;;;;2.20;2.00;;;19.10;99.90;;;;;;5033491;28;20030;-68
2023/08/25 04:33:01;;;;;;;2.53;2.33;;;19.10;99.90;;;;;;5032016;28;20025;-68
2023/08/25 04:35:27;;;;;;;2.40;2.23;;;19.10;99.90;;;;;;5033749;28;20029;-68
2023/08/25 04:37:53;;;;;;;1.67;1.58;;;19.10;99.90;;;;;;5034237;28;20029;-68
2023/08/25 04:40:20;;;;;;;2.27;2.07;;;19.10;99.90;;;;;;5034381;28;20041;-68
2023/08/25 04:42:46;;;;;;;3.92;2.42;;;19.00;99.90;;;;;;5034241;28;20125;-68
2023/08/25 04:45:13;;;;;;;2.27;2.17;;;19.00;99.90;;;;;;5030099;28;20109;-68
2023/08/25 04:47:40;;;;;;;5.70;3.55;;;19.00;99.90;;;;;;5027324;28;20105;-68
2023/08/25 04:50:07;;;;;;;1.85;1.77;;;19.10;99.90;;;;;;5034223;28;20507;-68
2023/08/25 04:52:34;;;;;;;4.95;1.80;;;19.10;99.90;;;;;;5028358;28;20329;-76
2023/08/25 04:55:04;;;;;;;3.33;2.78;;;19.10;99.90;;;;;;5027670;28;20131;-68
2023/08/25 04:57:30;;;;;;;5.22;2.85;;;19.10;99.90;;;;;;5030024;28;20034;-69
2023/08/25 04:59:56;;;;;;;3.92;2.45;;;19.10;99.90;;;;;;5038256;28;20333;-69
2023/08/25 05:02:23;;;;;;;1.77;1.67;;;19.20;99.90;;;;;;5028496;28;20471;-68
2023/08/25 05:04:49;;;;;;;9.07;3.88;;;19.20;99.90;;;;;;5023500;28;20185;-69
2023/08/25 05:07:15;;;;;;;2.13;2.03;;;19.30;99.90;;;;;;5030017;28;20511;-68
2023/08/25 05:09:41;;;;;;;2.63;2.40;;;19.20;99.90;;;;;;5028584;28;20346;-68
2023/08/25 05:12:07;;;;;;;7.13;3.97;;;19.30;99.90;;;;;;5025991;28;20138;-69
2023/08/25 05:14:33;;;;;;;;;;;19.30;99.90;;;;;;5031002;28;20018;-68
2023/08/25 05:16:59;;;;;;;4.78;2.88;;;19.30;99.90;;;;;;5025373;28;19971;-68
2023/08/25 05:19:25;;;;;;;2.85;2.75;;;19.30;99.90;;;;;;5034166;28;20034;-68
2023/08/25 05:21:51;;;;;;;2.13;2.03;;;19.30;99.90;;;;;;5025586;28;20076;-68
2023/08/25 05:24:23;;;;;;;3.27;2.97;;;19.30;99.90;;;;;;5032635;28;20064;-69
2023/08/25 05:26:52;;;;;;;3.22;2.42;;;19.30;99.90;;;;;;5024698;28;20317;-69
2023/08/25 05:29:23;;;;;;;2.90;2.75;;;19.30;99.90;;;;;;5034027;28;20053;-68
2023/08/25 05:31:49;;;;;;;8.68;3.58;;;19.30;99.90;;;;;;5031733;28;20022;-69
2023/08/25 05:34:15;;;;;;;2.45;2.35;;;19.40;99.90;;;;;;5024839;28;20029;-68
2023/08/25 05:36:42;;;;;;;4.60;4.20;;;19.40;99.90;;;;;;5026053;28;20029;-69
2023/08/25 05:39:08;;;;;;;6.20;2.83;;;19.40;99.90;;;;;;5029107;28;20033;-68
2023/08/25 05:41:34;;;;;;;3.35;3.15;;;19.40;99.90;;;;;;5032330;28;20032;-68
2023/08/25 05:44:01;;;;;;;4.00;3.70;;;19.40;99.90;;;;;;5031808;28;20479;-69
2023/08/25 05:46:29;;;;;;;2.72;2.53;;;19.50;99.90;;;;;;5030528;28;20037;-68
2023/08/25 05:48:56;;;;;;;2.22;2.13;;;19.40;99.90;;;;;;5024874;28;20341;-69
2023/08/25 05:51:21;;;;;;;5.15;1.77;;;19.50;99.90;;;;;;5026990;28;20099;-68
2023/08/25 05:53:47;;;;;;;2.37;2.27;;;19.50;99.90;;;;;;5028150;28;20384;-68
2023/08/25 05:56:13;;;;;;;3.20;3.00;;;19.60;99.90;;;;;;5035841;28;20041;-68
2023/08/25 05:58:41;;;;;;;2.83;2.63;;;19.70;99.90;;;;;;5033041;28;20277;-68
2023/08/25 06:01:08;;;;;;;8.82;3.38;;;19.80;99.90;;;;;;5031603;28;20048;-68
2023/08/25 06:03:34;;;;;;;2.88;2.67;;;19.70;99.90;;;;;;5032642;28;20025;-69
2023/08/25 06:05:59;;;;;;;9.30;6.70;;;19.70;99.90;;;;;;5028039;28;20037;-69
2023/08/25 06:08:26;;;;;;;2.13;2.00;;;19.70;99.90;;;;;;5033571;28;20444;-69
2023/08/25 06:10:52;;;;;;;2.83;2.58;;;19.70;99.90;;;;;;5027489;28;20026;-69
2023/08/25 06:13:19;;;;;;;4.90;4.25;;;19.70;99.90;;;;;;5025834;28;20033;-68
2023/08/25 06:15:45;;;;;;;10.82;4.28;;;19.70;99.90;;;;;;5031862;28;20044;-69
2023/08/25 06:18:11;;;;;;;3.45;3.17;;;19.70;99.90;;;;;;5044212;28;20344;-69
2023/08/25 06:20:41;;;;;;;4.63;3.42;;;19.70;99.90;;;;;;5029722;28;20107;-69
2023/08/25 06:23:07;;;;;;;4.57;4.10;;;19.70;99.90;;;;;;5025145;28;20025;-69
2023/08/25 06:25:33;;;;;;;3.47;3.05;;;19.70;99.90;;;;;;5033681;28;20025;-69
2023/08/25 06:27:59;;;;;;;3.28;3.03;;;19.80;99.90;;;;;;5029952;28;20026;-69
2023/08/25 06:30:29;;;;;;;4.53;4.13;;;19.90;99.90;;;;;;5024400;28;20053;-69
2023/08/25 06:32:55;;;;;;;4.47;4.13;;;19.90;99.90;;;;;;5025260;28;20105;-69
2023/08/25 06:35:22;;;;;;;5.90;4.13;;;19.90;99.90;;;;;;5031749;28;20108;-69
2023/08/25 06:37:48;;;;;;;;;;;19.90;99.90;;;;;;5033163;28;20029;-68
2023/08/25 06:40:14;;;;;;;3.72;3.15;;;20.00;99.90;;;;;;5018769;28;19909;-68
2023/08/25 06:42:40;;;;;;;5.65;3.92;;;20.00;99.90;;;;;;5033531;28;20047;-69
2023/08/25 06:45:07;;;;;;;3.30;3.10;;;20.00;99.90;;;;;;5025221;28;20046;-69
2023/08/25 06:47:34;;;;;;;3.00;2.80;;;20.00;99.90;;;;;;5030658;28;20036;-68
2023/08/25 06:50:00;;;;;;;2.13;1.98;;;20.00;99.90;;;;;;5029567;28;20140;-68
2023/08/25 06:52:26;;;;;;;7.78;4.30;;;20.00;99.90;;;;;;5032927;28;20451;-69
2023/08/25 06:54:52;;;;;;;3.47;3.17;;;20.10;99.90;;;;;;5033075;28;20057;-68
2023/08/25 06:57:18;;;;;;;4.07;3.03;;;20.10;99.90;;;;;;5029619;28;20036;-69
2023/08/25 06:59:44;;;;;;;4.90;3.57;;;20.10;99.90;;;;;;5037096;28;20057;-77
2023/08/25 07:02:10;;;;;;;4.32;3.55;;;20.10;99.90;;;;;;5036355;28;20025;-69
2023/08/25 07:04:36;;;;;;;3.97;3.67;;;20.10;99.90;;;;;;5037270;28;20104;-69
2023/08/25 07:07:02;;;;;;;16.85;3.40;;;20.20;99.90;;;;;;5029456;28;20034;-69
2023/08/25 07:09:28;;;;;;;6.10;4.45;;;20.20;99.90;;;;;;5032704;28;20324;-69
2023/08/25 07:11:54;;;;;;;3.53;3.22;;;20.20;99.90;;;;;;5037281;28;20033;-69
2023/08/25 07:14:21;;;;;;;11.73;3.85;;;20.30;99.90;;;;;;5035550;28;20029;-69
2023/08/25 07:16:46;;;;;;;7.15;2.65;;;20.30;99.90;;;;;;5031606;28;20036;-69
2023/08/25 07:19:14;;;;;;;1.70;1.60;;;20.30;99.90;;;;;;5031428;28;20030;-70
2023/08/25 07:21:40;;;;;;;5.95;5.43;;;20.40;99.90;;;;;;5028720;28;20317;-69
2023/08/25 07:24:06;;;;;;;5.53;4.13;;;20.40;99.90;;;;;;5035430;28;20095;-69
2023/08/25 07:26:31;;;;;;;6.17;2.20;;;20.40;99.90;;;;;;5041687;28;20048;-69
2023/08/25 07:28:57;;;;;;;5.28;2.85;;;20.40;99.90;;;;;;5030149;28;20290;-69
2023/08/25 07:31:23;;;;;;;2.93;2.73;;;20.40;99.90;;;;;;5031624;28;20029;-69
2023/08/25 07:33:49;;;;;;;5.10;3.90;;;20.50;99.90;;;;;;5023491;28;20040;-75
2023/08/25 07:36:14;;;;;;;3.17;2.97;;;20.60;99.90;;;;;;5025967;28;20033;-69
2023/08/25 07:38:40;;;;;;;6.37;4.13;;;20.70;99.90;;;;;;5038055;28;20081;-70
2023/08/25 07:41:06;;;;;;;2.85;2.65;;;20.60;99.90;;;;;;5035686;28;20097;-69
2023/08/25 07:43:32;;;;;;;4.72;2.22;;;20.60;99.90;;;;;;5037862;28;20425;-69
2023/08/25 07:45:58;;;;;;;4.00;3.65;;;20.60;99.90;;;;;;5039524;28;20064;-69
2023/08/25 07:48:24;;;;;;;3.13;2.83;;;20.50;99.90;;;;;;5030657;28;20041;-69
2023/08/25 07:50:49;;;;;;;2.75;2.50;;;20.60;99.90;;;;;;5031384;28;20018;-69
2023/08/25 07:53:15;;;;;;;2.60;2.47;;;20.60;99.90;;;;;;5038871;28;20029;-69
2023/08/25 07:55:42;;;;;;;3.38;3.10;;;20.60;99.90;;;;;;5033429;28;20027;-69
2023/08/25 07:58:08;;;;;;;;;;;20.60;99.90;;;;;;5035676;28;20054;-69
2023/08/25 08:00:34;;;;;;;6.47;4.13;;;20.70;99.90;;;;;;5032455;28;19914;-69
2023/08/25 08:03:00;;;;;;;3.47;3.25;;;20.80;99.90;;;;;;5028522;28;20353;-69
2023/08/25 08:05:26;;;;;;;5.43;3.75;;;20.90;99.90;;;;;;5038244;28;20450;-69
2023/08/25 08:07:52;;;;;;;2.90;2.70;;;21.00;99.90;;;;;;5029229;28;20037;-69
2023/08/25 08:10:18;;;;;;;5.22;3.88;;;21.10;99.90;;;;;;5034697;28;20091;-69
2023/08/25 08:12:44;;;;;;;6.88;3.42;;;21.10;99.90;;;;;;5024095;28;20037;-69
2023/08/25 08:15:12;;;;;;;3.20;2.92;;;21.10;99.90;;;;;;5031878;28;20033;-70
2023/08/25 08:17:39;;;;;;;7.53;3.40;;;21.10;99.90;;;;;;5035525;28;20026;-70
2023/08/25 08:20:07;;;;;;;3.95;3.42;;;21.20;99.90;;;;;;5032958;28;20033;-69
2023/08/25 08:22:33;;;;;;;8.75;5.57;;;21.10;99.90;;;;;;5020254;28;20029;-70
2023/08/25 08:24:59;;;;;;;4.25;3.85;;;21.20;99.90;;;;;;5025917;28;20029;-69
2023/08/25 08:27:25;;;;;;;6.35;4.32;;;21.20;99.90;;;;;;5040074;28;20029;-76
2023/08/25 08:29:51;;;;;;;3.92;2.55;;;21.30;99.90;;;;;;5035107;28;20032;-75
2023/08/25 08:32:17;;;;;;;;;;;21.30;99.90;;;;;;5021874;28;20026;-69
2023/08/25 08:34:44;;;;;;;2.88;2.45;;;21.40;99.90;;;;;;5028209;28;19916;-69
2023/08/25 08:37:10;;;;;;;3.45;3.05;;;21.40;99.90;;;;;;5038909;28;20034;-69
2023/08/25 08:39:39;;;;;;;3.67;3.35;;;21.50;99.90;;;;;;5023344;28;20333;-69
2023/08/25 08:42:09;;;;;;;10.95;3.53;;;21.50;99.90;;;;;;5039213;28;20348;-69
2023/08/25 08:44:36;;;;;;;4.07;1.90;;;21.50;99.90;;;;;;5018793;28;20030;-69
2023/08/25 08:47:06;;;;;;;2.47;2.28;;;21.50;99.90;;;;;;5039775;28;20033;-69
2023/08/25 08:49:33;;;;;;;3.60;3.25;;;21.50;99.90;;;;;;5037788;28;20041;-69
2023/08/25 08:52:03;;;;;;;2.75;2.53;;;21.50;99.90;;;;;;5038713;28;20363;-69
2023/08/25 08:54:32;;;;;;;12.98;5.47;;;21.50;99.90;;;;;;5038321;28;20488;-69
2023/08/25 08:56:59;;;;;;;2.63;2.42;;;21.60;99.90;;;;;;5031636;28;20041;-69
2023/08/25 08:59:25;;;;;;;5.95;2.88;;;21.70;99.90;;;;;;5037515;28;20026;-69
2023/08/25 09:01:53;;;;;;;2.97;2.73;;;21.90;99.90;;;;;;5041799;28;20037;-69
2023/08/25 09:04:23;;;;;;;3.05;2.83;;;22.00;99.90;;;;;;5033316;28;20061;-69
2023/08/25 09:06:51;;;;;;;3.90;2.58;;;22.10;99.90;;;;;;5031765;28;20029;-69
2023/08/25 09:09:21;;;;;;;1.55;1.55;;;22.30;99.90;;;;;;5032616;28;20045;-69
2023/08/25 09:11:48;;;;;;;2.83;2.63;;;22.30;99.90;;;;;;5046556;28;20021;-70
2023/08/25 09:14:26;;;;;;;3.85;3.55;;;22.40;99.90;;;;;;5029475;28;20029;-69
2023/08/25 09:16:56;;;;;;;2.85;2.40;;;22.40;99.90;;;;;;5038595;28;20025;-76
2023/08/25 09:19:22;;;;;;;3.92;3.08;;;22.50;99.90;;;;;;5042655;28;20022;-69
2023/08/25 09:21:49;;;;;;;7.65;2.25;;;22.70;99.90;;;;;;5041010;28;20297;-69
2023/08/25 09:24:21;;;;;;;6.30;4.45;;;22.90;99.90;;;;;;5036401;28;20029;-69
2023/08/25 09:26:48;;;;;;;3.38;2.97;;;22.90;99.90;;;;;;5037854;28;20030;-70
2023/08/25 09:29:14;;;;;;;3.55;3.28;;;22.90;99.90;;;;;;5028468;28;20433;-69
2023/08/25 09:31:41;;;;;;;1.70;1.60;;;22.90;99.90;;;;;;5035722;28;20128;-69
2023/08/25 09:34:07;;;;;;;;;;;22.90;99.90;;;;;;5034778;28;20037;-69
2023/08/25 09:36:34;;;;;;;12.27;3.22;;;22.90;99.90;;;;;;5035743;28;19916;-69
2023/08/25 09:39:01;;;;;;;4.18;3.80;;;22.90;99.90;;;;;;5034352;28;20061;-69
2023/08/25 09:41:28;;;;;;;2.33;2.20;;;22.80;99.90;;;;;;5038281;28;20029;-75
2023/08/25 09:43:59;;;;;;;1.80;1.70;;;22.80;99.90;;;;;;5037761;28;20083;-69
2023/08/25 09:46:29;;;;;;;7.13;3.22;;;22.70;99.90;;;;;;5035861;28;20029;-69
2023/08/25 09:49:01;;;;;;;5.50;2.78;;;22.70;99.90;;;;;;5036143;28;20042;-70
2023/08/25 09:51:42;;;;;;;3.67;2.60;;;22.70;99.90;;;;;;5032221;28;20312;-69
2023/08/25 09:54:08;;;;;;;5.10;3.67;;;22.60;99.90;;;;;;5034755;28;20417;-69
2023/08/25 09:56:36;;;;;;;7.50;3.67;;;22.50;99.90;;;;;;5029814;28;20078;-69
2023/08/25 09:59:06;;;;;;;2.10;1.20;;;22.40;99.90;;;;;;5043578;28;20112;-69
2023/08/25 10:01:34;;;;;;;1.48;1.48;;;22.40;99.90;;;;;;5043600;28;20065;-69
2023/08/25 10:04:03;;;;;;;1.17;1.08;;;22.30;99.90;;;;;;5035846;28;20037;-69
2023/08/25 10:06:31;;;;;;;5.97;3.45;;;22.20;99.90;;;;;;5035304;28;20425;-69
2023/08/25 10:08:58;;;;;;;2.15;2.05;;;22.30;99.90;;;;;;5032515;28;20037;-69
2023/08/25 10:11:28;;;;;;;3.33;1.77;;;22.30;99.90;;;;;;5029027;28;20109;-78
2023/08/25 10:13:56;;;;;;;2.83;2.63;;;22.30;99.90;;;;;;5034261;28;20471;-69
2023/08/25 10:16:27;;;;;;;9.50;2.25;;;22.50;99.90;;;;;;5033383;28;20029;-69
2023/08/25 10:18:58;;;;;;;3.42;3.15;;;22.60;99.90;;;;;;5032162;28;20036;-76
2023/08/25 10:21:25;;;;;;;4.00;2.60;;;22.80;99.90;;;;;;5029163;28;20052;-69
2023/08/25 10:23:55;;;;;;;2.55;2.35;;;22.80;99.90;;;;;;5038099;28;20509;-70
2023/08/25 10:26:23;;;;;;;1.95;1.80;;;22.90;99.90;;;;;;5040255;28;20161;-70
2023/08/25 10:28:50;;;;;;;3.90;3.55;;;22.90;99.90;;;;;;5037517;28;20017;-70
2023/08/25 10:31:16;;;;;;;4.03;3.15;;;22.90;99.90;;;;;;5038797;28;20489;-69
2023/08/25 10:33:50;;;;;;;2.70;2.50;;;22.90;99.90;;;;;;5049117;28;20480;-70
2023/08/25 10:36:18;;;;;;;2.85;2.47;;;22.90;99.90;;;;;;5039283;28;20032;-70
2023/08/25 10:39:05;;;;;;;2.92;2.72;;;23.00;99.90;;;;;;5042364;28;20044;-70
2023/08/25 10:41:43;;;;;;;3.17;2.33;;;23.00;99.90;;;;;;5042508;28;20328;-69
2023/08/25 10:44:37;;;;;;;1.40;1.38;;;23.10;99.90;;;;;;5055126;28;20040;-70
2023/08/25 10:47:03;;;;;;;2.40;2.22;;;23.10;99.90;;;;;;5035054;28;20061;-70
2023/08/25 10:49:38;;;;;;;2.80;2.55;;;23.10;99.90;;;;;;5037211;28;20079;-70
2023/08/25 10:52:15;;;;;;;3.13;2.53;;;23.00;99.90;;;;;;5043194;28;20037;-70
2023/08/25 10:54:51;;;;;;;26.02;3.47;;;23.00;99.90;;;;;;5054176;28;20037;-69
2023/08/25 10:57:41;;;;;;;3.17;3.00;;;23.10;99.90;;;;;;5036736;28;20030;-76
2023/08/25 11:00:25;;;;;;;2.85;2.28;;;23.30;99.90;;;;;;5044116;28;20063;-70
2023/08/25 11:02:51;;;;;;;1.80;1.70;;;23.40;99.90;;;;;;5044190;28;20032;-70
2023/08/25 11:05:28;;;;;;;1.23;1.23;;;23.40;99.90;;;;;;5038082;28;20022;-70
2023/08/25 11:07:55;;;;;;;2.28;2.08;;;23.50;99.90;;;;;;5035081;28;20427;-70
2023/08/25 11:10:21;;;;;;;;;;;23.60;99.90;;;;;;5045871;28;20053;-70
2023/08/25 11:12:51;;;;;;;7.78;2.85;;;23.60;99.90;;;;;;5045553;28;20015;-75
2023/08/25 11:15:17;;;;;;;1.63;1.52;;;23.60;99.90;;;;;;5044017;28;20025;-77
2023/08/25 11:17:46;;;;;;;1.98;1.83;;;23.70;99.90;;;;;;5045472;28;20340;-70
2023/08/25 11:20:13;;;;;;;2.13;2.03;;;23.80;99.90;;;;;;5047448;28;20056;-70
2023/08/25 11:22:55;;;;;;;3.67;1.17;;;23.90;99.90;;;;;;5045583;28;20026;-71
2023/08/25 11:25:21;;;;;;;1.10;1.10;;;24.00;99.90;;;;;;5048290;28;20040;-70
2023/08/25 11:27:51;;;;;;;2.22;2.05;;;24.00;99.90;;;;;;5051565;28;20025;-70
2023/08/25 11:30:17;;;;;;;3.80;1.77;;;24.00;99.90;;;;;;5045903;28;20029;-70
2023/08/25 11:32:52;;;;;;;4.15;2.58;;;24.00;99.90;;;;;;5035479;28;20021;-69
2023/08/25 11:35:18;;;;;;;0.82;0.82;;;24.00;99.90;;;;;;5053250;28;20057;-75
2023/08/25 11:37:47;;;;;;;5.20;1.88;;;24.00;99.90;;;;;;5052162;28;20075;-75
2023/08/25 11:40:18;;;;;;;1.25;1.25;;;23.90;99.90;;;;;;5043685;28;20098;-70
2023/08/25 11:42:45;;;;;;;1.85;1.75;;;23.90;99.90;;;;;;5047082;28;20032;-70
2023/08/25 11:45:11;;;;;;;1.70;1.58;;;23.90;99.90;;;;;;5052841;28;20044;-70
2023/08/25 11:47:38;;;;;;;3.25;2.85;;;23.80;99.90;;;;;;5046644;28;20044;-77
2023/08/25 11:50:07;;;;;;;;;;;23.80;99.90;;;;;;5050879;28;20340;-70
2023/08/25 11:52:36;;;;;;;0.82;0.82;;;23.80;99.90;;;;;;5047391;28;20519;-70
2023/08/25 11:55:02;;;;;;;2.42;2.33;;;23.70;99.90;;;;;;5033899;28;20044;-70
2023/08/25 11:57:34;;;;;;;1.33;1.30;;;23.60;99.90;;;;;;5028832;28;20033;-70
2023/08/25 12:00:03;;;;;;;8.90;3.55;;;23.70;99.90;;;;;;5038407;28;20317;-70
2023/08/25 12:02:29;;;;;;;3.72;1.48;;;23.80;99.90;;;;;;5036794;28;20025;-75
2023/08/25 12:04:56;;;;;;;;;;;23.90;99.90;;;;;;5026952;28;20055;-70
2023/08/25 12:07:23;;;;;;;1.65;1.55;;;24.00;99.90;;;;;;5039658;28;20216;-70
2023/08/25 12:09:57;;;;;;;4.13;1.75;;;24.00;99.90;;;;;;5035814;28;20581;-71
2023/08/25 12:12:23;;;;;;;1.02;1.02;;;24.10;99.90;;;;;;5035422;28;20022;-71
2023/08/25 12:14:53;;;;;;;2.97;2.78;;;24.20;99.90;;;;;;5035946;28;20072;-70
2023/08/25 12:17:27;;;;;;;4.72;2.22;;;24.40;99.90;;;;;;5036041;28;20053;-72
2023/08/25 12:19:55;;;;;;;1.55;1.40;;;24.60;99.90;;;;;;5033795;28;20029;-71
2023/08/25 12:22:23;;;;;;;3.90;2.25;;;24.70;99.90;;;;;;5028199;28;20320;-70
2023/08/25 12:24:49;;;;;;;1.55;1.48;;;25.00;99.90;;;;;;5034977;28;20116;-72
2023/08/25 12:27:15;;;;;;;2.78;2.03;;;25.20;99.90;;;;;;5028973;28;20021;-70
2023/08/25 12:29:41;;;;;;;1.95;1.85;;;25.30;99.90;;;;;;5033766;28;20033;-70
2023/08/25 12:32:09;;;;;;;1.30;0.57;;;25.40;99.90;;;;;;5048118;28;20025;-71
2023/08/25 12:34:36;;;;;;;43.35;3.15;;;25.50;99.90;;;;;;5034567;28;20091;-71
2023/08/25 12:37:03;;;;;;;2.35;1.17;;;25.50;99.90;;;;;;5029923;28;20430;-71
2023/08/25 12:39:29;;;;;;;3.80;1.83;;;25.40;99.90;;;;;;5026788;28;20053;-70
2023/08/25 12:41:55;;;;;;;1.20;1.10;;;25.40;99.90;;;;;;5032127;28;20034;-73
2023/08/25 12:44:22;;;;;;;5.82;3.20;;;25.30;99.90;;;;;;5035301;28;20044;-71
2023/08/25 12:46:47;;;;;;;1.80;1.70;;;25.30;99.90;;;;;;5033467;28;20060;-76
2023/08/25 12:49:14;;;;;;;1.33;1.23;;;25.20;99.90;;;;;;5033795;28;20092;-69